sensor_id;sensor_type;location;lat;lon;timestamp;P1;durP1;ratioP1;P2;durP2;ratioP2
16516;SDS011;8371;52.272;9.746;2022-11-20T00:01:12;3.20;;;3.10;;
16516;SDS011;8371;52.272;9.746;2022-11-20T00:03:38;3.30;;;3.10;;
16516;SDS011;8371;52.272;9.746;2022-11-20T00:06:06;2.90;;;2.80;;
16516;SDS011;8371;52.272;9.746;2022-11-20T00:08:34;2.93;;;2.83;;
16516;SDS011;8371;52.272;9.746;2022-11-20T00:11:07;2.80;;;2.60;;
16516;SDS011;8371;52.272;9.746;2022-11-20T00:13:34;2.90;;;2.80;;
16516;SDS011;8371;52.272;9.746;2022-11-20T00:16:01;2.90;;;2.80;;
16516;SDS011;8371;52.272;9.746;2022-11-20T00:18:29;3.07;;;2.97;;
16516;SDS011;8371;52.272;9.746;2022-11-20T00:21:02;2.87;;;2.77;;
16516;SDS011;8371;52.272;9.746;2022-11-20T00:23:29;3.10;;;3.00;;
16516;SDS011;8371;52.272;9.746;2022-11-20T00:25:55;2.80;;;2.70;;
16516;SDS011;8371;52.272;9.746;2022-11-20T00:28:20;3.07;;;2.97;;
16516;SDS011;8371;52.272;9.746;2022-11-20T00:30:46;3.27;;;3.07;;
16516;SDS011;8371;52.272;9.746;2022-11-20T00:33:12;3.20;;;3.10;;
16516;SDS011;8371;52.272;9.746;2022-11-20T00:35:37;3.00;;;2.90;;
16516;SDS011;8371;52.272;9.746;2022-11-20T00:38:03;2.93;;;2.83;;
16516;SDS011;8371;52.272;9.746;2022-11-20T00:40:29;2.83;;;2.73;;
16516;SDS011;8371;52.272;9.746;2022-11-20T00:42:55;2.57;;;2.47;;
16516;SDS011;8371;52.272;9.746;2022-11-20T00:45:20;3.30;;;3.10;;
16516;SDS011;8371;52.272;9.746;2022-11-20T00:47:46;3.50;;;3.30;;
16516;SDS011;8371;52.272;9.746;2022-11-20T00:50:12;2.87;;;2.77;;
16516;SDS011;8371;52.272;9.746;2022-11-20T00:52:37;2.90;;;2.80;;
16516;SDS011;8371;52.272;9.746;2022-11-20T00:55:03;3.20;;;3.10;;
16516;SDS011;8371;52.272;9.746;2022-11-20T00:57:30;2.63;;;2.53;;
16516;SDS011;8371;52.272;9.746;2022-11-20T00:59:55;3.30;;;3.10;;
16516;SDS011;8371;52.272;9.746;2022-11-20T01:02:21;2.83;;;2.73;;
16516;SDS011;8371;52.272;9.746;2022-11-20T01:04:47;3.20;;;3.10;;
16516;SDS011;8371;52.272;9.746;2022-11-20T01:07:13;2.83;;;2.73;;
16516;SDS011;8371;52.272;9.746;2022-11-20T01:09:38;2.83;;;2.70;;
16516;SDS011;8371;52.272;9.746;2022-11-20T01:12:04;2.87;;;2.77;;
16516;SDS011;8371;52.272;9.746;2022-11-20T01:14:30;2.80;;;2.70;;
16516;SDS011;8371;52.272;9.746;2022-11-20T01:16:55;2.57;;;2.47;;
16516;SDS011;8371;52.272;9.746;2022-11-20T01:19:22;2.80;;;2.70;;
16516;SDS011;8371;52.272;9.746;2022-11-20T01:21:52;2.80;;;2.70;;
16516;SDS011;8371;52.272;9.746;2022-11-20T01:24:39;2.50;;;2.40;;
16516;SDS011;8371;52.272;9.746;2022-11-20T01:27:04;2.47;;;2.37;;
16516;SDS011;8371;52.272;9.746;2022-11-20T01:29:30;3.00;;;2.90;;
16516;SDS011;8371;52.272;9.746;2022-11-20T01:31:56;2.97;;;2.87;;
16516;SDS011;8371;52.272;9.746;2022-11-20T01:34:22;2.97;;;2.87;;
16516;SDS011;8371;52.272;9.746;2022-11-20T01:36:48;3.13;;;2.97;;
16516;SDS011;8371;52.272;9.746;2022-11-20T01:39:16;2.60;;;2.43;;
16516;SDS011;8371;52.272;9.746;2022-11-20T01:41:44;2.57;;;2.47;;
16516;SDS011;8371;52.272;9.746;2022-11-20T01:47:21;2.90;;;2.80;;
16516;SDS011;8371;52.272;9.746;2022-11-20T01:49:53;2.33;;;2.23;;
16516;SDS011;8371;52.272;9.746;2022-11-20T01:52:30;2.63;;;2.53;;
16516;SDS011;8371;52.272;9.746;2022-11-20T01:55:01;2.67;;;2.57;;
16516;SDS011;8371;52.272;9.746;2022-11-20T01:57:29;3.00;;;2.90;;
16516;SDS011;8371;52.272;9.746;2022-11-20T01:59:59;2.90;;;2.80;;
16516;SDS011;8371;52.272;9.746;2022-11-20T02:02:27;2.70;;;2.60;;
16516;SDS011;8371;52.272;9.746;2022-11-20T02:04:54;3.07;;;2.97;;
16516;SDS011;8371;52.272;9.746;2022-11-20T02:07:23;3.10;;;2.93;;
16516;SDS011;8371;52.272;9.746;2022-11-20T02:09:49;2.80;;;2.70;;
16516;SDS011;8371;52.272;9.746;2022-11-20T02:12:15;3.20;;;3.10;;
16516;SDS011;8371;52.272;9.746;2022-11-20T02:14:59;2.90;;;2.80;;
16516;SDS011;8371;52.272;9.746;2022-11-20T02:17:26;2.80;;;2.70;;
16516;SDS011;8371;52.272;9.746;2022-11-20T02:19:51;2.40;;;2.30;;
16516;SDS011;8371;52.272;9.746;2022-11-20T02:24:53;3.00;;;2.90;;
16516;SDS011;8371;52.272;9.746;2022-11-20T02:27:18;2.67;;;2.57;;
16516;SDS011;8371;52.272;9.746;2022-11-20T02:32:25;2.70;;;2.60;;
16516;SDS011;8371;52.272;9.746;2022-11-20T02:34:53;2.90;;;2.80;;
16516;SDS011;8371;52.272;9.746;2022-11-20T02:37:19;3.13;;;3.03;;
16516;SDS011;8371;52.272;9.746;2022-11-20T02:39:46;2.93;;;2.83;;
16516;SDS011;8371;52.272;9.746;2022-11-20T02:42:14;3.00;;;2.90;;
16516;SDS011;8371;52.272;9.746;2022-11-20T02:44:40;2.63;;;2.53;;
16516;SDS011;8371;52.272;9.746;2022-11-20T02:47:05;2.50;;;2.40;;
16516;SDS011;8371;52.272;9.746;2022-11-20T02:49:32;2.50;;;2.40;;
16516;SDS011;8371;52.272;9.746;2022-11-20T02:51:58;2.80;;;2.70;;
16516;SDS011;8371;52.272;9.746;2022-11-20T02:54:24;2.73;;;2.63;;
16516;SDS011;8371;52.272;9.746;2022-11-20T02:56:50;3.10;;;3.00;;
16516;SDS011;8371;52.272;9.746;2022-11-20T02:59:16;2.60;;;2.50;;
16516;SDS011;8371;52.272;9.746;2022-11-20T03:01:41;2.50;;;2.40;;
16516;SDS011;8371;52.272;9.746;2022-11-20T03:04:07;2.70;;;2.60;;
16516;SDS011;8371;52.272;9.746;2022-11-20T03:06:33;2.87;;;2.77;;
16516;SDS011;8371;52.272;9.746;2022-11-20T03:08:59;2.67;;;2.57;;
16516;SDS011;8371;52.272;9.746;2022-11-20T03:11:25;3.17;;;3.07;;
16516;SDS011;8371;52.272;9.746;2022-11-20T03:13:50;2.60;;;2.50;;
16516;SDS011;8371;52.272;9.746;2022-11-20T03:16:18;2.63;;;2.53;;
16516;SDS011;8371;52.272;9.746;2022-11-20T03:18:46;2.10;;;2.00;;
16516;SDS011;8371;52.272;9.746;2022-11-20T03:21:12;2.63;;;2.53;;
16516;SDS011;8371;52.272;9.746;2022-11-20T03:23:39;2.40;;;2.30;;
16516;SDS011;8371;52.272;9.746;2022-11-20T03:28:40;2.57;;;2.47;;
16516;SDS011;8371;52.272;9.746;2022-11-20T03:31:08;3.03;;;2.83;;
16516;SDS011;8371;52.272;9.746;2022-11-20T03:33:36;2.43;;;2.33;;
16516;SDS011;8371;52.272;9.746;2022-11-20T03:36:06;2.80;;;2.70;;
16516;SDS011;8371;52.272;9.746;2022-11-20T03:38:34;2.63;;;2.53;;
16516;SDS011;8371;52.272;9.746;2022-11-20T03:41:01;2.73;;;2.63;;
16516;SDS011;8371;52.272;9.746;2022-11-20T03:43:29;2.97;;;2.87;;
16516;SDS011;8371;52.272;9.746;2022-11-20T03:45:55;2.83;;;2.67;;
16516;SDS011;8371;52.272;9.746;2022-11-20T03:48:21;2.67;;;2.57;;
16516;SDS011;8371;52.272;9.746;2022-11-20T03:50:47;2.57;;;2.47;;
16516;SDS011;8371;52.272;9.746;2022-11-20T03:53:13;2.60;;;2.50;;
16516;SDS011;8371;52.272;9.746;2022-11-20T03:55:39;2.83;;;2.73;;
16516;SDS011;8371;52.272;9.746;2022-11-20T03:58:05;2.70;;;2.60;;
16516;SDS011;8371;52.272;9.746;2022-11-20T04:00:31;2.20;;;2.10;;
16516;SDS011;8371;52.272;9.746;2022-11-20T04:03:00;2.97;;;2.87;;
16516;SDS011;8371;52.272;9.746;2022-11-20T04:05:27;2.63;;;2.53;;
16516;SDS011;8371;52.272;9.746;2022-11-20T04:07:53;2.67;;;2.57;;
16516;SDS011;8371;52.272;9.746;2022-11-20T04:10:19;2.37;;;2.27;;
16516;SDS011;8371;52.272;9.746;2022-11-20T04:12:45;2.30;;;2.20;;
16516;SDS011;8371;52.272;9.746;2022-11-20T04:15:11;2.57;;;2.47;;
16516;SDS011;8371;52.272;9.746;2022-11-20T04:17:36;2.70;;;2.60;;
16516;SDS011;8371;52.272;9.746;2022-11-20T04:20:02;2.57;;;2.47;;
16516;SDS011;8371;52.272;9.746;2022-11-20T04:22:29;2.73;;;2.63;;
16516;SDS011;8371;52.272;9.746;2022-11-20T04:24:54;2.80;;;2.70;;
16516;SDS011;8371;52.272;9.746;2022-11-20T04:27:20;2.63;;;2.53;;
16516;SDS011;8371;52.272;9.746;2022-11-20T04:29:46;2.27;;;2.17;;
16516;SDS011;8371;52.272;9.746;2022-11-20T04:32:12;3.10;;;3.00;;
16516;SDS011;8371;52.272;9.746;2022-11-20T04:34:37;2.53;;;2.43;;
16516;SDS011;8371;52.272;9.746;2022-11-20T04:37:03;2.50;;;2.40;;
16516;SDS011;8371;52.272;9.746;2022-11-20T04:39:29;2.70;;;2.60;;
16516;SDS011;8371;52.272;9.746;2022-11-20T04:41:54;3.03;;;2.93;;
16516;SDS011;8371;52.272;9.746;2022-11-20T04:44:38;2.77;;;2.67;;
16516;SDS011;8371;52.272;9.746;2022-11-20T04:47:04;2.97;;;2.87;;
16516;SDS011;8371;52.272;9.746;2022-11-20T04:49:30;3.73;;;3.63;;
16516;SDS011;8371;52.272;9.746;2022-11-20T04:51:57;3.90;;;3.80;;
16516;SDS011;8371;52.272;9.746;2022-11-20T04:54:23;3.07;;;2.87;;
16516;SDS011;8371;52.272;9.746;2022-11-20T04:56:49;2.97;;;2.87;;
16516;SDS011;8371;52.272;9.746;2022-11-20T04:59:15;2.70;;;2.60;;
16516;SDS011;8371;52.272;9.746;2022-11-20T05:01:41;2.60;;;2.50;;
16516;SDS011;8371;52.272;9.746;2022-11-20T05:04:07;3.00;;;2.70;;
16516;SDS011;8371;52.272;9.746;2022-11-20T05:06:33;2.77;;;2.57;;
16516;SDS011;8371;52.272;9.746;2022-11-20T05:08:59;3.00;;;2.90;;
16516;SDS011;8371;52.272;9.746;2022-11-20T05:11:26;2.77;;;2.67;;
16516;SDS011;8371;52.272;9.746;2022-11-20T05:13:54;2.37;;;2.27;;
16516;SDS011;8371;52.272;9.746;2022-11-20T05:16:21;3.00;;;2.90;;
16516;SDS011;8371;52.272;9.746;2022-11-20T05:18:48;2.90;;;2.80;;
16516;SDS011;8371;52.272;9.746;2022-11-20T05:21:15;2.57;;;2.47;;
16516;SDS011;8371;52.272;9.746;2022-11-20T05:23:42;3.07;;;2.97;;
16516;SDS011;8371;52.272;9.746;2022-11-20T05:26:12;2.57;;;2.47;;
16516;SDS011;8371;52.272;9.746;2022-11-20T05:28:40;2.57;;;2.47;;
16516;SDS011;8371;52.272;9.746;2022-11-20T05:31:13;2.87;;;2.77;;
16516;SDS011;8371;52.272;9.746;2022-11-20T05:33:35;2.83;;;2.73;;
16516;SDS011;8371;52.272;9.746;2022-11-20T05:36:02;2.77;;;2.67;;
16516;SDS011;8371;52.272;9.746;2022-11-20T05:38:29;2.77;;;2.67;;
16516;SDS011;8371;52.272;9.746;2022-11-20T05:40:54;2.50;;;2.40;;
16516;SDS011;8371;52.272;9.746;2022-11-20T05:43:20;2.73;;;2.63;;
16516;SDS011;8371;52.272;9.746;2022-11-20T05:45:53;2.50;;;2.40;;
16516;SDS011;8371;52.272;9.746;2022-11-20T05:48:19;2.40;;;2.30;;
16516;SDS011;8371;52.272;9.746;2022-11-20T05:50:44;2.83;;;2.73;;
16516;SDS011;8371;52.272;9.746;2022-11-20T05:53:10;2.30;;;2.20;;
16516;SDS011;8371;52.272;9.746;2022-11-20T05:55:36;2.27;;;2.17;;
16516;SDS011;8371;52.272;9.746;2022-11-20T05:58:02;2.67;;;2.57;;
16516;SDS011;8371;52.272;9.746;2022-11-20T06:00:27;2.30;;;2.20;;
16516;SDS011;8371;52.272;9.746;2022-11-20T06:02:53;2.30;;;2.20;;
16516;SDS011;8371;52.272;9.746;2022-11-20T06:05:19;2.57;;;2.47;;
16516;SDS011;8371;52.272;9.746;2022-11-20T06:07:44;2.83;;;2.73;;
16516;SDS011;8371;52.272;9.746;2022-11-20T06:10:10;3.07;;;2.97;;
16516;SDS011;8371;52.272;9.746;2022-11-20T06:12:36;3.53;;;3.43;;
16516;SDS011;8371;52.272;9.746;2022-11-20T06:15:02;2.90;;;2.80;;
16516;SDS011;8371;52.272;9.746;2022-11-20T06:17:29;3.07;;;2.83;;
16516;SDS011;8371;52.272;9.746;2022-11-20T06:19:54;3.73;;;3.53;;
16516;SDS011;8371;52.272;9.746;2022-11-20T06:22:20;3.50;;;3.40;;
16516;SDS011;8371;52.272;9.746;2022-11-20T06:24:46;3.20;;;3.10;;
16516;SDS011;8371;52.272;9.746;2022-11-20T06:27:11;3.53;;;3.43;;
16516;SDS011;8371;52.272;9.746;2022-11-20T06:29:37;3.00;;;2.90;;
16516;SDS011;8371;52.272;9.746;2022-11-20T06:32:03;2.83;;;2.73;;
16516;SDS011;8371;52.272;9.746;2022-11-20T06:34:29;3.20;;;3.10;;
16516;SDS011;8371;52.272;9.746;2022-11-20T06:36:54;3.23;;;3.13;;
16516;SDS011;8371;52.272;9.746;2022-11-20T06:39:20;3.57;;;3.47;;
16516;SDS011;8371;52.272;9.746;2022-11-20T06:41:46;3.27;;;3.17;;
16516;SDS011;8371;52.272;9.746;2022-11-20T06:44:11;2.77;;;2.67;;
16516;SDS011;8371;52.272;9.746;2022-11-20T06:46:37;3.20;;;3.10;;
16516;SDS011;8371;52.272;9.746;2022-11-20T06:49:03;3.53;;;3.43;;
16516;SDS011;8371;52.272;9.746;2022-11-20T06:51:29;3.37;;;3.27;;
16516;SDS011;8371;52.272;9.746;2022-11-20T06:53:54;3.70;;;3.50;;
16516;SDS011;8371;52.272;9.746;2022-11-20T06:56:20;3.50;;;3.40;;
16516;SDS011;8371;52.272;9.746;2022-11-20T06:58:46;3.03;;;2.93;;
16516;SDS011;8371;52.272;9.746;2022-11-20T07:01:12;3.33;;;3.23;;
16516;SDS011;8371;52.272;9.746;2022-11-20T07:03:39;3.13;;;3.03;;
16516;SDS011;8371;52.272;9.746;2022-11-20T07:06:05;3.50;;;3.40;;
16516;SDS011;8371;52.272;9.746;2022-11-20T07:08:31;3.20;;;3.10;;
16516;SDS011;8371;52.272;9.746;2022-11-20T07:11:01;3.03;;;2.93;;
16516;SDS011;8371;52.272;9.746;2022-11-20T07:13:29;3.47;;;3.33;;
16516;SDS011;8371;52.272;9.746;2022-11-20T07:15:59;3.23;;;3.13;;
16516;SDS011;8371;52.272;9.746;2022-11-20T07:18:27;3.70;;;3.50;;
16516;SDS011;8371;52.272;9.746;2022-11-20T07:20:52;3.50;;;3.40;;
16516;SDS011;8371;52.272;9.746;2022-11-20T07:23:18;3.00;;;2.90;;
16516;SDS011;8371;52.272;9.746;2022-11-20T07:25:44;3.97;;;3.73;;
16516;SDS011;8371;52.272;9.746;2022-11-20T07:28:09;3.20;;;3.10;;
16516;SDS011;8371;52.272;9.746;2022-11-20T07:30:36;3.40;;;3.30;;
16516;SDS011;8371;52.272;9.746;2022-11-20T07:33:01;3.90;;;3.70;;
16516;SDS011;8371;52.272;9.746;2022-11-20T07:35:27;3.03;;;2.93;;
16516;SDS011;8371;52.272;9.746;2022-11-20T07:37:53;3.30;;;3.20;;
16516;SDS011;8371;52.272;9.746;2022-11-20T07:40:19;3.57;;;3.37;;
16516;SDS011;8371;52.272;9.746;2022-11-20T07:42:48;3.07;;;2.97;;
16516;SDS011;8371;52.272;9.746;2022-11-20T07:45:15;3.83;;;3.73;;
16516;SDS011;8371;52.272;9.746;2022-11-20T07:47:41;3.27;;;3.17;;
16516;SDS011;8371;52.272;9.746;2022-11-20T07:50:07;3.70;;;3.50;;
16516;SDS011;8371;52.272;9.746;2022-11-20T07:52:33;3.53;;;3.40;;
16516;SDS011;8371;52.272;9.746;2022-11-20T07:54:59;2.97;;;2.87;;
16516;SDS011;8371;52.272;9.746;2022-11-20T07:57:25;3.47;;;3.37;;
16516;SDS011;8371;52.272;9.746;2022-11-20T07:59:50;3.40;;;3.30;;
16516;SDS011;8371;52.272;9.746;2022-11-20T08:02:16;3.03;;;2.93;;
16516;SDS011;8371;52.272;9.746;2022-11-20T08:04:42;3.87;;;3.67;;
16516;SDS011;8371;52.272;9.746;2022-11-20T08:07:07;3.57;;;3.40;;
16516;SDS011;8371;52.272;9.746;2022-11-20T08:09:33;3.20;;;3.10;;
16516;SDS011;8371;52.272;9.746;2022-11-20T08:11:59;3.93;;;3.80;;
16516;SDS011;8371;52.272;9.746;2022-11-20T08:14:43;3.77;;;3.57;;
16516;SDS011;8371;52.272;9.746;2022-11-20T08:17:09;3.73;;;3.53;;
16516;SDS011;8371;52.272;9.746;2022-11-20T08:19:35;3.27;;;3.17;;
16516;SDS011;8371;52.272;9.746;2022-11-20T08:22:01;4.20;;;4.00;;
16516;SDS011;8371;52.272;9.746;2022-11-20T08:24:26;3.93;;;3.83;;
16516;SDS011;8371;52.272;9.746;2022-11-20T08:26:52;3.80;;;3.70;;
16516;SDS011;8371;52.272;9.746;2022-11-20T08:31:56;3.80;;;3.70;;
16516;SDS011;8371;52.272;9.746;2022-11-20T08:34:22;4.50;;;4.30;;
16516;SDS011;8371;52.272;9.746;2022-11-20T08:36:48;4.83;;;4.63;;
16516;SDS011;8371;52.272;9.746;2022-11-20T08:39:13;3.93;;;3.83;;
16516;SDS011;8371;52.272;9.746;2022-11-20T08:41:39;4.67;;;4.47;;
16516;SDS011;8371;52.272;9.746;2022-11-20T08:44:06;4.50;;;4.30;;
16516;SDS011;8371;52.272;9.746;2022-11-20T08:46:39;4.73;;;4.53;;
16516;SDS011;8371;52.272;9.746;2022-11-20T08:49:08;5.10;;;4.90;;
16516;SDS011;8371;52.272;9.746;2022-11-20T08:51:36;5.00;;;4.80;;
16516;SDS011;8371;52.272;9.746;2022-11-20T08:54:02;5.23;;;5.00;;
16516;SDS011;8371;52.272;9.746;2022-11-20T08:56:29;5.10;;;4.90;;
16516;SDS011;8371;52.272;9.746;2022-11-20T08:58:55;5.13;;;4.93;;
16516;SDS011;8371;52.272;9.746;2022-11-20T09:01:21;4.70;;;4.50;;
16516;SDS011;8371;52.272;9.746;2022-11-20T09:03:48;5.40;;;5.20;;
16516;SDS011;8371;52.272;9.746;2022-11-20T09:06:14;5.17;;;4.97;;
16516;SDS011;8371;52.272;9.746;2022-11-20T09:08:41;5.27;;;5.07;;
16516;SDS011;8371;52.272;9.746;2022-11-20T09:11:07;4.93;;;4.67;;
16516;SDS011;8371;52.272;9.746;2022-11-20T09:13:34;5.20;;;4.90;;
16516;SDS011;8371;52.272;9.746;2022-11-20T09:16:05;5.37;;;5.07;;
16516;SDS011;8371;52.272;9.746;2022-11-20T09:18:32;4.57;;;4.37;;
16516;SDS011;8371;52.272;9.746;2022-11-20T09:21:03;4.70;;;4.50;;
16516;SDS011;8371;52.272;9.746;2022-11-20T09:23:31;4.70;;;4.50;;
16516;SDS011;8371;52.272;9.746;2022-11-20T09:26:01;4.60;;;4.40;;
16516;SDS011;8371;52.272;9.746;2022-11-20T09:28:30;5.10;;;4.90;;
16516;SDS011;8371;52.272;9.746;2022-11-20T09:30:56;4.53;;;4.33;;
16516;SDS011;8371;52.272;9.746;2022-11-20T09:33:22;4.97;;;4.77;;
16516;SDS011;8371;52.272;9.746;2022-11-20T09:35:47;5.03;;;4.83;;
16516;SDS011;8371;52.272;9.746;2022-11-20T09:38:13;4.57;;;4.37;;
16516;SDS011;8371;52.272;9.746;2022-11-20T09:40:43;4.73;;;4.53;;
16516;SDS011;8371;52.272;9.746;2022-11-20T09:43:18;4.47;;;4.27;;
16516;SDS011;8371;52.272;9.746;2022-11-20T09:48:36;4.77;;;4.57;;
16516;SDS011;8371;52.272;9.746;2022-11-20T09:51:14;4.90;;;4.70;;
16516;SDS011;8371;52.272;9.746;2022-11-20T09:56:27;4.77;;;4.53;;
16516;SDS011;8371;52.272;9.746;2022-11-20T09:58:54;4.37;;;4.17;;
16516;SDS011;8371;52.272;9.746;2022-11-20T10:01:26;4.27;;;4.07;;
16516;SDS011;8371;52.272;9.746;2022-11-20T10:03:59;4.23;;;4.03;;
16516;SDS011;8371;52.272;9.746;2022-11-20T10:06:34;3.77;;;3.60;;
16516;SDS011;8371;52.272;9.746;2022-11-20T10:20:17;4.90;;;4.70;;
16516;SDS011;8371;52.272;9.746;2022-11-20T10:28:46;3.97;;;3.87;;
16516;SDS011;8371;52.272;9.746;2022-11-20T10:36:52;4.00;;;3.80;;
16516;SDS011;8371;52.272;9.746;2022-11-20T10:39:38;4.07;;;3.97;;
16516;SDS011;8371;52.272;9.746;2022-11-20T10:42:17;4.17;;;3.97;;
16516;SDS011;8371;52.272;9.746;2022-11-20T10:44:52;3.93;;;3.73;;
16516;SDS011;8371;52.272;9.746;2022-11-20T10:47:27;4.17;;;3.97;;
16516;SDS011;8371;52.272;9.746;2022-11-20T10:49:55;4.37;;;4.17;;
16516;SDS011;8371;52.272;9.746;2022-11-20T10:52:37;4.37;;;4.17;;
16516;SDS011;8371;52.272;9.746;2022-11-20T10:55:09;3.90;;;3.70;;
16516;SDS011;8371;52.272;9.746;2022-11-20T11:00:42;4.30;;;4.10;;
16516;SDS011;8371;52.272;9.746;2022-11-20T11:03:15;4.47;;;4.17;;
16516;SDS011;8371;52.272;9.746;2022-11-20T11:08:13;5.43;;;5.23;;
16516;SDS011;8371;52.272;9.746;2022-11-20T11:10:49;4.50;;;4.30;;
16516;SDS011;8371;52.272;9.746;2022-11-20T11:15:49;5.03;;;4.83;;
16516;SDS011;8371;52.272;9.746;2022-11-20T11:18:23;5.87;;;5.57;;
16516;SDS011;8371;52.272;9.746;2022-11-20T11:20:54;5.57;;;5.37;;
16516;SDS011;8371;52.272;9.746;2022-11-20T11:26:25;4.90;;;4.70;;
16516;SDS011;8371;52.272;9.746;2022-11-20T11:29:02;5.60;;;5.30;;
16516;SDS011;8371;52.272;9.746;2022-11-20T11:31:30;5.30;;;5.00;;
16516;SDS011;8371;52.272;9.746;2022-11-20T11:34:10;5.57;;;5.20;;
16516;SDS011;8371;52.272;9.746;2022-11-20T11:36:32;5.70;;;5.40;;
16516;SDS011;8371;52.272;9.746;2022-11-20T11:38:59;5.40;;;5.20;;
16516;SDS011;8371;52.272;9.746;2022-11-20T11:41:28;5.10;;;4.80;;
16516;SDS011;8371;52.272;9.746;2022-11-20T11:44:16;5.53;;;5.33;;
16516;SDS011;8371;52.272;9.746;2022-11-20T11:47:03;5.30;;;5.10;;
16516;SDS011;8371;52.272;9.746;2022-11-20T11:49:31;5.03;;;4.83;;
16516;SDS011;8371;52.272;9.746;2022-11-20T11:52:05;5.67;;;5.37;;
16516;SDS011;8371;52.272;9.746;2022-11-20T11:54:45;5.27;;;5.07;;
16516;SDS011;8371;52.272;9.746;2022-11-20T11:57:19;4.80;;;4.60;;
16516;SDS011;8371;52.272;9.746;2022-11-20T12:05:29;5.17;;;4.97;;
16516;SDS011;8371;52.272;9.746;2022-11-20T12:10:46;4.13;;;3.93;;
16516;SDS011;8371;52.272;9.746;2022-11-20T12:13:22;5.00;;;4.67;;
16516;SDS011;8371;52.272;9.746;2022-11-20T12:16:02;5.00;;;4.80;;
16516;SDS011;8371;52.272;9.746;2022-11-20T12:18:29;4.70;;;4.50;;
16516;SDS011;8371;52.272;9.746;2022-11-20T12:21:05;4.90;;;4.70;;
16516;SDS011;8371;52.272;9.746;2022-11-20T12:23:50;4.67;;;4.47;;
16516;SDS011;8371;52.272;9.746;2022-11-20T12:26:33;4.90;;;4.70;;
16516;SDS011;8371;52.272;9.746;2022-11-20T12:31:52;4.60;;;4.40;;
16516;SDS011;8371;52.272;9.746;2022-11-20T12:37:07;4.77;;;4.57;;
16516;SDS011;8371;52.272;9.746;2022-11-20T12:39:41;5.20;;;5.00;;
16516;SDS011;8371;52.272;9.746;2022-11-20T12:59:23;4.77;;;4.47;;
16516;SDS011;8371;52.272;9.746;2022-11-20T13:05:15;5.20;;;4.90;;
16516;SDS011;8371;52.272;9.746;2022-11-20T13:07:28;4.73;;;4.53;;
16516;SDS011;8371;52.272;9.746;2022-11-20T13:09:55;4.90;;;4.70;;
16516;SDS011;8371;52.272;9.746;2022-11-20T13:12:36;5.10;;;4.90;;
16516;SDS011;8371;52.272;9.746;2022-11-20T13:15:11;4.97;;;4.77;;
16516;SDS011;8371;52.272;9.746;2022-11-20T13:17:57;5.40;;;5.10;;
16516;SDS011;8371;52.272;9.746;2022-11-20T13:20:25;4.50;;;4.30;;
16516;SDS011;8371;52.272;9.746;2022-11-20T13:22:53;4.90;;;4.70;;
16516;SDS011;8371;52.272;9.746;2022-11-20T13:28:43;5.03;;;4.83;;
16516;SDS011;8371;52.272;9.746;2022-11-20T13:30:30;4.93;;;4.73;;
16516;SDS011;8371;52.272;9.746;2022-11-20T13:32:57;4.87;;;4.67;;
16516;SDS011;8371;52.272;9.746;2022-11-20T13:35:27;4.93;;;4.73;;
16516;SDS011;8371;52.272;9.746;2022-11-20T13:38:05;4.83;;;4.63;;
16516;SDS011;8371;52.272;9.746;2022-11-20T13:40:34;5.07;;;4.87;;
16516;SDS011;8371;52.272;9.746;2022-11-20T13:46:05;4.47;;;4.23;;
16516;SDS011;8371;52.272;9.746;2022-11-20T13:48:32;4.77;;;4.57;;
16516;SDS011;8371;52.272;9.746;2022-11-20T13:51:09;5.27;;;4.87;;
16516;SDS011;8371;52.272;9.746;2022-11-20T13:56:21;5.03;;;4.73;;
16516;SDS011;8371;52.272;9.746;2022-11-20T13:59:06;5.20;;;5.00;;
16516;SDS011;8371;52.272;9.746;2022-11-20T14:01:34;4.47;;;4.27;;
16516;SDS011;8371;52.272;9.746;2022-11-20T14:04:05;5.00;;;4.80;;
16516;SDS011;8371;52.272;9.746;2022-11-20T14:06:44;5.10;;;4.90;;
16516;SDS011;8371;52.272;9.746;2022-11-20T14:09:13;5.40;;;5.10;;
16516;SDS011;8371;52.272;9.746;2022-11-20T14:11:46;5.33;;;5.13;;
16516;SDS011;8371;52.272;9.746;2022-11-20T14:14:13;4.20;;;4.10;;
16516;SDS011;8371;52.272;9.746;2022-11-20T14:16:41;5.00;;;4.80;;
16516;SDS011;8371;52.272;9.746;2022-11-20T14:21:52;5.13;;;4.90;;
16516;SDS011;8371;52.272;9.746;2022-11-20T14:24:35;5.70;;;5.50;;
16516;SDS011;8371;52.272;9.746;2022-11-20T14:27:01;5.23;;;5.03;;
16516;SDS011;8371;52.272;9.746;2022-11-20T14:29:34;6.00;;;5.70;;
16516;SDS011;8371;52.272;9.746;2022-11-20T14:32:02;6.23;;;5.93;;
16516;SDS011;8371;52.272;9.746;2022-11-20T14:34:30;5.30;;;5.10;;
16516;SDS011;8371;52.272;9.746;2022-11-20T14:36:58;5.10;;;4.87;;
16516;SDS011;8371;52.272;9.746;2022-11-20T14:39:30;5.00;;;4.80;;
16516;SDS011;8371;52.272;9.746;2022-11-20T14:42:01;6.17;;;5.83;;
16516;SDS011;8371;52.272;9.746;2022-11-20T14:44:32;5.47;;;5.17;;
16516;SDS011;8371;52.272;9.746;2022-11-20T14:47:00;5.20;;;4.90;;
16516;SDS011;8371;52.272;9.746;2022-11-20T14:49:28;5.27;;;4.97;;
16516;SDS011;8371;52.272;9.746;2022-11-20T14:52:00;4.93;;;4.73;;
16516;SDS011;8371;52.272;9.746;2022-11-20T14:54:27;5.00;;;4.80;;
16516;SDS011;8371;52.272;9.746;2022-11-20T14:56:55;4.70;;;4.40;;
16516;SDS011;8371;52.272;9.746;2022-11-20T14:59:23;5.10;;;4.80;;
16516;SDS011;8371;52.272;9.746;2022-11-20T15:04:26;4.33;;;4.13;;
16516;SDS011;8371;52.272;9.746;2022-11-20T15:06:52;4.40;;;4.20;;
16516;SDS011;8371;52.272;9.746;2022-11-20T15:09:20;4.50;;;4.30;;
16516;SDS011;8371;52.272;9.746;2022-11-20T15:11:57;4.33;;;4.13;;
16516;SDS011;8371;52.272;9.746;2022-11-20T15:14:22;4.80;;;4.60;;
16516;SDS011;8371;52.272;9.746;2022-11-20T15:16:49;6.27;;;5.67;;
16516;SDS011;8371;52.272;9.746;2022-11-20T15:19:20;6.97;;;6.37;;
16516;SDS011;8371;52.272;9.746;2022-11-20T15:21:48;6.60;;;6.30;;
16516;SDS011;8371;52.272;9.746;2022-11-20T15:24:13;6.07;;;5.57;;
16516;SDS011;8371;52.272;9.746;2022-11-20T15:26:39;5.87;;;5.57;;
16516;SDS011;8371;52.272;9.746;2022-11-20T15:29:08;6.30;;;6.00;;
16516;SDS011;8371;52.272;9.746;2022-11-20T15:31:37;5.13;;;4.93;;
16516;SDS011;8371;52.272;9.746;2022-11-20T15:34:12;6.07;;;5.77;;
16516;SDS011;8371;52.272;9.746;2022-11-20T15:36:39;5.77;;;5.47;;
16516;SDS011;8371;52.272;9.746;2022-11-20T15:39:05;5.77;;;5.47;;
16516;SDS011;8371;52.272;9.746;2022-11-20T15:41:34;5.43;;;5.20;;
16516;SDS011;8371;52.272;9.746;2022-11-20T15:44:01;6.07;;;5.77;;
16516;SDS011;8371;52.272;9.746;2022-11-20T15:46:28;8.47;;;7.97;;
16516;SDS011;8371;52.272;9.746;2022-11-20T15:48:56;9.37;;;8.73;;
16516;SDS011;8371;52.272;9.746;2022-11-20T15:53:55;7.27;;;6.80;;
16516;SDS011;8371;52.272;9.746;2022-11-20T15:56:21;6.13;;;5.83;;
16516;SDS011;8371;52.272;9.746;2022-11-20T15:58:47;5.63;;;5.43;;
16516;SDS011;8371;52.272;9.746;2022-11-20T16:01:13;6.27;;;5.97;;
16516;SDS011;8371;52.272;9.746;2022-11-20T16:03:44;5.73;;;5.47;;
16516;SDS011;8371;52.272;9.746;2022-11-20T16:06:10;6.03;;;5.73;;
16516;SDS011;8371;52.272;9.746;2022-11-20T16:08:36;6.43;;;6.13;;
16516;SDS011;8371;52.272;9.746;2022-11-20T16:11:02;5.93;;;5.63;;
16516;SDS011;8371;52.272;9.746;2022-11-20T16:13:28;6.10;;;5.80;;
16516;SDS011;8371;52.272;9.746;2022-11-20T16:16:22;6.13;;;5.73;;
16516;SDS011;8371;52.272;9.746;2022-11-20T16:18:51;6.03;;;5.73;;
16516;SDS011;8371;52.272;9.746;2022-11-20T16:21:17;5.73;;;5.43;;
16516;SDS011;8371;52.272;9.746;2022-11-20T16:23:42;6.40;;;6.10;;
16516;SDS011;8371;52.272;9.746;2022-11-20T16:26:09;6.43;;;6.03;;
16516;SDS011;8371;52.272;9.746;2022-11-20T16:28:35;6.17;;;5.77;;
16516;SDS011;8371;52.272;9.746;2022-11-20T16:31:14;5.97;;;5.57;;
16516;SDS011;8371;52.272;9.746;2022-11-20T16:33:42;5.07;;;4.87;;
16516;SDS011;8371;52.272;9.746;2022-11-20T16:36:09;5.70;;;5.40;;
16516;SDS011;8371;52.272;9.746;2022-11-20T16:38:36;7.53;;;7.03;;
16516;SDS011;8371;52.272;9.746;2022-11-20T16:41:02;10.03;;;9.10;;
16516;SDS011;8371;52.272;9.746;2022-11-20T16:43:29;8.00;;;7.40;;
16516;SDS011;8371;52.272;9.746;2022-11-20T16:45:54;6.70;;;6.30;;
16516;SDS011;8371;52.272;9.746;2022-11-20T16:48:20;6.00;;;5.70;;
16516;SDS011;8371;52.272;9.746;2022-11-20T16:50:52;6.80;;;6.40;;